sensor_id;sensor_type;location;lat;lon;timestamp;temperature;humidity
44537;DHT22;30245;51.966;6.292;2023-01-13T00:01:13;15.10;65.70
44537;DHT22;30245;51.966;6.292;2023-01-13T00:03:39;15.20;65.70
44537;DHT22;30245;51.966;6.292;2023-01-13T00:06:05;15.10;65.70
44537;DHT22;30245;51.966;6.292;2023-01-13T00:08:31;15.20;65.60
44537;DHT22;30245;51.966;6.292;2023-01-13T00:10:57;15.10;65.30
44537;DHT22;30245;51.966;6.292;2023-01-13T00:13:23;15.10;64.80
44537;DHT22;30245;51.966;6.292;2023-01-13T00:15:58;15.10;64.50
44537;DHT22;30245;51.966;6.292;2023-01-13T00:18:25;15.00;64.20
44537;DHT22;30245;51.966;6.292;2023-01-13T00:21:01;15.10;64.30
44537;DHT22;30245;51.966;6.292;2023-01-13T00:23:28;15.00;63.90
44537;DHT22;30245;51.966;6.292;2023-01-13T00:25:56;15.00;64.00
44537;DHT22;30245;51.966;6.292;2023-01-13T00:28:22;15.00;63.80
44537;DHT22;30245;51.966;6.292;2023-01-13T00:30:47;15.00;63.70
44537;DHT22;30245;51.966;6.292;2023-01-13T00:33:13;15.00;63.50
44537;DHT22;30245;51.966;6.292;2023-01-13T00:35:39;15.00;62.90
44537;DHT22;30245;51.966;6.292;2023-01-13T00:38:04;15.00;62.70
44537;DHT22;30245;51.966;6.292;2023-01-13T00:40:30;14.90;62.40
44537;DHT22;30245;51.966;6.292;2023-01-13T00:42:55;14.80;62.20
44537;DHT22;30245;51.966;6.292;2023-01-13T00:45:39;14.90;62.10
44537;DHT22;30245;51.966;6.292;2023-01-13T00:48:05;14.80;61.70
44537;DHT22;30245;51.966;6.292;2023-01-13T00:50:31;14.70;61.70
44537;DHT22;30245;51.966;6.292;2023-01-13T00:52:59;14.70;61.90
44537;DHT22;30245;51.966;6.292;2023-01-13T00:55:25;14.60;61.60
44537;DHT22;30245;51.966;6.292;2023-01-13T00:57:50;14.60;61.70
44537;DHT22;30245;51.966;6.292;2023-01-13T01:00:16;14.60;61.70
44537;DHT22;30245;51.966;6.292;2023-01-13T01:02:42;14.50;61.60
44537;DHT22;30245;51.966;6.292;2023-01-13T01:05:08;14.50;61.70
44537;DHT22;30245;51.966;6.292;2023-01-13T01:07:34;14.50;61.60
44537;DHT22;30245;51.966;6.292;2023-01-13T01:10:00;14.50;61.60
44537;DHT22;30245;51.966;6.292;2023-01-13T01:12:25;14.40;61.70
44537;DHT22;30245;51.966;6.292;2023-01-13T01:14:51;14.30;61.70
44537;DHT22;30245;51.966;6.292;2023-01-13T01:17:16;14.30;61.90
44537;DHT22;30245;51.966;6.292;2023-01-13T01:19:42;14.30;62.00
44537;DHT22;30245;51.966;6.292;2023-01-13T01:22:08;14.30;61.90
44537;DHT22;30245;51.966;6.292;2023-01-13T01:24:33;14.30;62.00
44537;DHT22;30245;51.966;6.292;2023-01-13T01:26:59;14.30;62.00
44537;DHT22;30245;51.966;6.292;2023-01-13T01:29:25;14.20;62.10
44537;DHT22;30245;51.966;6.292;2023-01-13T01:31:50;14.10;62.10
44537;DHT22;30245;51.966;6.292;2023-01-13T01:34:16;14.10;62.00
44537;DHT22;30245;51.966;6.292;2023-01-13T01:36:41;14.10;62.10
44537;DHT22;30245;51.966;6.292;2023-01-13T01:39:08;14.10;62.10
44537;DHT22;30245;51.966;6.292;2023-01-13T01:41:34;14.10;62.10
44537;DHT22;30245;51.966;6.292;2023-01-13T01:47:09;14.00;62.10
44537;DHT22;30245;51.966;6.292;2023-01-13T01:49:37;14.00;62.00
44537;DHT22;30245;51.966;6.292;2023-01-13T01:52:06;13.90;62.00
44537;DHT22;30245;51.966;6.292;2023-01-13T01:54:38;13.90;62.00
44537;DHT22;30245;51.966;6.292;2023-01-13T01:57:07;13.90;62.10
44537;DHT22;30245;51.966;6.292;2023-01-13T01:59:35;13.90;61.90
44537;DHT22;30245;51.966;6.292;2023-01-13T02:02:02;13.90;62.00
44537;DHT22;30245;51.966;6.292;2023-01-13T02:04:30;13.90;61.90
44537;DHT22;30245;51.966;6.292;2023-01-13T02:06:58;13.90;61.90
44537;DHT22;30245;51.966;6.292;2023-01-13T02:09:25;14.00;62.00
44537;DHT22;30245;51.966;6.292;2023-01-13T02:11:51;13.90;61.90
44537;DHT22;30245;51.966;6.292;2023-01-13T02:14:35;13.90;61.80
44537;DHT22;30245;51.966;6.292;2023-01-13T02:17:05;13.90;61.90
44537;DHT22;30245;51.966;6.292;2023-01-13T02:19:42;13.90;61.90
44537;DHT22;30245;51.966;6.292;2023-01-13T02:25:10;13.90;62.00
44537;DHT22;30245;51.966;6.292;2023-01-13T02:30:39;13.90;61.80
44537;DHT22;30245;51.966;6.292;2023-01-13T02:39:01;13.70;62.00
44537;DHT22;30245;51.966;6.292;2023-01-13T02:41:48;13.70;62.00
44537;DHT22;30245;51.966;6.292;2023-01-13T02:44:47;13.70;62.10
44537;DHT22;30245;51.966;6.292;2023-01-13T02:47:20;13.60;62.30
44537;DHT22;30245;51.966;6.292;2023-01-13T02:49:57;13.60;62.30
44537;DHT22;30245;51.966;6.292;2023-01-13T02:52:33;13.60;62.40
44537;DHT22;30245;51.966;6.292;2023-01-13T02:55:04;13.60;62.30
44537;DHT22;30245;51.966;6.292;2023-01-13T02:57:31;13.60;62.20
44537;DHT22;30245;51.966;6.292;2023-01-13T02:59:58;13.60;62.80
44537;DHT22;30245;51.966;6.292;2023-01-13T03:02:24;13.60;62.20
44537;DHT22;30245;51.966;6.292;2023-01-13T03:04:57;13.60;62.10
44537;DHT22;30245;51.966;6.292;2023-01-13T03:07:48;13.60;62.00
44537;DHT22;30245;51.966;6.292;2023-01-13T03:26:52;13.40;61.90
44537;DHT22;30245;51.966;6.292;2023-01-13T03:29:32;13.40;61.70
44537;DHT22;30245;51.966;6.292;2023-01-13T03:32:08;13.50;61.50
44537;DHT22;30245;51.966;6.292;2023-01-13T03:35:26;13.50;62.00
44537;DHT22;30245;51.966;6.292;2023-01-13T03:37:30;13.50;61.30
44537;DHT22;30245;51.966;6.292;2023-01-13T03:40:00;13.50;60.80
44537;DHT22;30245;51.966;6.292;2023-01-13T03:42:29;13.40;60.60
44537;DHT22;30245;51.966;6.292;2023-01-13T03:45:12;13.40;60.70
44537;DHT22;30245;51.966;6.292;2023-01-13T03:47:54;13.40;60.90
44537;DHT22;30245;51.966;6.292;2023-01-13T03:50:37;13.40;60.70
44537;DHT22;30245;51.966;6.292;2023-01-13T03:53:10;13.40;60.50
44537;DHT22;30245;51.966;6.292;2023-01-13T03:55:46;13.50;60.60
44537;DHT22;30245;51.966;6.292;2023-01-13T03:58:23;13.50;60.40
44537;DHT22;30245;51.966;6.292;2023-01-13T04:00:55;13.50;60.30
44537;DHT22;30245;51.966;6.292;2023-01-13T04:03:30;13.50;60.30
44537;DHT22;30245;51.966;6.292;2023-01-13T04:06:09;13.50;60.30
44537;DHT22;30245;51.966;6.292;2023-01-13T04:08:40;13.60;60.30
44537;DHT22;30245;51.966;6.292;2023-01-13T04:11:22;13.60;60.20
44537;DHT22;30245;51.966;6.292;2023-01-13T04:13:53;13.60;60.30
44537;DHT22;30245;51.966;6.292;2023-01-13T04:16:19;13.60;60.30
44537;DHT22;30245;51.966;6.292;2023-01-13T04:18:48;13.60;60.30
44537;DHT22;30245;51.966;6.292;2023-01-13T04:21:14;13.60;60.10
44537;DHT22;30245;51.966;6.292;2023-01-13T04:23:40;13.60;60.10
44537;DHT22;30245;51.966;6.292;2023-01-13T04:26:05;13.60;59.90
44537;DHT22;30245;51.966;6.292;2023-01-13T04:28:31;13.60;59.90
44537;DHT22;30245;51.966;6.292;2023-01-13T04:30:57;13.60;60.00
44537;DHT22;30245;51.966;6.292;2023-01-13T04:33:23;13.60;60.00
44537;DHT22;30245;51.966;6.292;2023-01-13T04:35:49;13.60;59.90
44537;DHT22;30245;51.966;6.292;2023-01-13T04:38:18;13.60;59.90
44537;DHT22;30245;51.966;6.292;2023-01-13T04:40:44;13.60;59.80
44537;DHT22;30245;51.966;6.292;2023-01-13T04:43:10;13.60;59.50
44537;DHT22;30245;51.966;6.292;2023-01-13T04:45:36;13.70;59.70
44537;DHT22;30245;51.966;6.292;2023-01-13T04:48:02;13.70;59.60
44537;DHT22;30245;51.966;6.292;2023-01-13T04:50:27;13.60;59.50
44537;DHT22;30245;51.966;6.292;2023-01-13T04:52:54;13.60;59.50
44537;DHT22;30245;51.966;6.292;2023-01-13T04:55:21;13.60;59.10
44537;DHT22;30245;51.966;6.292;2023-01-13T04:57:47;13.60;59.00
44537;DHT22;30245;51.966;6.292;2023-01-13T05:00:15;13.60;58.90
44537;DHT22;30245;51.966;6.292;2023-01-13T05:02:41;13.60;58.60
44537;DHT22;30245;51.966;6.292;2023-01-13T05:05:07;13.60;58.20
44537;DHT22;30245;51.966;6.292;2023-01-13T05:07:33;13.60;58.00
44537;DHT22;30245;51.966;6.292;2023-01-13T05:09:59;13.60;57.90
44537;DHT22;30245;51.966;6.292;2023-01-13T05:12:24;13.60;57.80
44537;DHT22;30245;51.966;6.292;2023-01-13T05:15:12;13.60;57.60
44537;DHT22;30245;51.966;6.292;2023-01-13T05:17:56;13.60;57.60
44537;DHT22;30245;51.966;6.292;2023-01-13T05:20:23;13.60;57.10
44537;DHT22;30245;51.966;6.292;2023-01-13T05:22:48;13.60;57.00
44537;DHT22;30245;51.966;6.292;2023-01-13T05:25:36;13.60;56.90
44537;DHT22;30245;51.966;6.292;2023-01-13T05:28:02;13.60;56.80
44537;DHT22;30245;51.966;6.292;2023-01-13T05:30:31;13.60;56.70
44537;DHT22;30245;51.966;6.292;2023-01-13T05:32:57;13.60;56.80
44537;DHT22;30245;51.966;6.292;2023-01-13T05:35:23;13.50;56.50
44537;DHT22;30245;51.966;6.292;2023-01-13T05:37:49;13.50;56.70
44537;DHT22;30245;51.966;6.292;2023-01-13T05:40:16;13.50;56.80
44537;DHT22;30245;51.966;6.292;2023-01-13T05:43:12;13.50;56.90
44537;DHT22;30245;51.966;6.292;2023-01-13T05:45:56;13.50;57.00
44537;DHT22;30245;51.966;6.292;2023-01-13T05:48:33;13.50;57.10
44537;DHT22;30245;51.966;6.292;2023-01-13T05:51:00;13.50;57.40
44537;DHT22;30245;51.966;6.292;2023-01-13T05:53:26;13.40;58.20
44537;DHT22;30245;51.966;6.292;2023-01-13T05:55:52;13.40;57.70
44537;DHT22;30245;51.966;6.292;2023-01-13T05:58:20;13.50;57.80
44537;DHT22;30245;51.966;6.292;2023-01-13T06:00:46;13.50;57.90
44537;DHT22;30245;51.966;6.292;2023-01-13T06:03:12;13.40;58.00
44537;DHT22;30245;51.966;6.292;2023-01-13T06:05:38;13.50;58.20
44537;DHT22;30245;51.966;6.292;2023-01-13T06:08:05;13.40;58.20
44537;DHT22;30245;51.966;6.292;2023-01-13T06:10:32;13.50;58.30
44537;DHT22;30245;51.966;6.292;2023-01-13T06:12:58;13.40;59.00
44537;DHT22;30245;51.966;6.292;2023-01-13T06:15:24;13.40;58.50
44537;DHT22;30245;51.966;6.292;2023-01-13T06:17:50;13.40;58.60
44537;DHT22;30245;51.966;6.292;2023-01-13T06:20:16;13.50;58.60
44537;DHT22;30245;51.966;6.292;2023-01-13T06:22:44;13.40;58.60
44537;DHT22;30245;51.966;6.292;2023-01-13T06:27:42;13.40;58.60
44537;DHT22;30245;51.966;6.292;2023-01-13T06:30:08;13.40;58.60
44537;DHT22;30245;51.966;6.292;2023-01-13T06:32:40;13.40;58.60
44537;DHT22;30245;51.966;6.292;2023-01-13T06:35:11;13.40;58.60
44537;DHT22;30245;51.966;6.292;2023-01-13T06:37:38;13.40;58.70
44537;DHT22;30245;51.966;6.292;2023-01-13T06:40:05;13.40;58.80
44537;DHT22;30245;51.966;6.292;2023-01-13T06:42:34;13.40;58.90
44537;DHT22;30245;51.966;6.292;2023-01-13T06:45:21;13.40;58.80
44537;DHT22;30245;51.966;6.292;2023-01-13T06:47:47;13.30;58.90
44537;DHT22;30245;51.966;6.292;2023-01-13T06:50:13;13.30;59.00
44537;DHT22;30245;51.966;6.292;2023-01-13T06:52:38;13.20;59.00
44537;DHT22;30245;51.966;6.292;2023-01-13T06:55:04;13.20;59.10
44537;DHT22;30245;51.966;6.292;2023-01-13T06:57:30;13.20;59.20
44537;DHT22;30245;51.966;6.292;2023-01-13T06:59:55;13.10;59.10
44537;DHT22;30245;51.966;6.292;2023-01-13T07:02:21;13.10;59.10
44537;DHT22;30245;51.966;6.292;2023-01-13T07:04:46;13.10;59.20
44537;DHT22;30245;51.966;6.292;2023-01-13T07:07:13;13.00;59.20
44537;DHT22;30245;51.966;6.292;2023-01-13T07:09:39;13.00;59.20
44537;DHT22;30245;51.966;6.292;2023-01-13T07:12:05;13.10;59.20
44537;DHT22;30245;51.966;6.292;2023-01-13T07:14:30;13.10;59.20
44537;DHT22;30245;51.966;6.292;2023-01-13T07:17:15;13.00;59.10
44537;DHT22;30245;51.966;6.292;2023-01-13T07:19:40;13.00;59.10
44537;DHT22;30245;51.966;6.292;2023-01-13T07:22:06;13.00;59.20
44537;DHT22;30245;51.966;6.292;2023-01-13T07:24:31;13.10;59.30
44537;DHT22;30245;51.966;6.292;2023-01-13T07:26:57;13.10;59.10
44537;DHT22;30245;51.966;6.292;2023-01-13T07:29:23;13.10;59.00
44537;DHT22;30245;51.966;6.292;2023-01-13T07:31:49;13.10;59.00
44537;DHT22;30245;51.966;6.292;2023-01-13T07:34:14;13.00;59.00
44537;DHT22;30245;51.966;6.292;2023-01-13T07:36:40;13.00;59.00
44537;DHT22;30245;51.966;6.292;2023-01-13T07:39:05;13.00;59.00
44537;DHT22;30245;51.966;6.292;2023-01-13T07:41:31;13.00;59.00
44537;DHT22;30245;51.966;6.292;2023-01-13T07:44:16;13.00;59.00
44537;DHT22;30245;51.966;6.292;2023-01-13T07:46:41;13.00;59.10
44537;DHT22;30245;51.966;6.292;2023-01-13T07:49:08;13.00;59.00
44537;DHT22;30245;51.966;6.292;2023-01-13T07:51:38;13.00;59.00
44537;DHT22;30245;51.966;6.292;2023-01-13T07:54:04;13.00;58.90
44537;DHT22;30245;51.966;6.292;2023-01-13T07:56:30;13.00;58.90
44537;DHT22;30245;51.966;6.292;2023-01-13T07:58:58;13.10;59.00
44537;DHT22;30245;51.966;6.292;2023-01-13T08:01:24;13.10;58.80
44537;DHT22;30245;51.966;6.292;2023-01-13T08:03:51;13.00;58.70
44537;DHT22;30245;51.966;6.292;2023-01-13T08:06:17;13.00;58.80
44537;DHT22;30245;51.966;6.292;2023-01-13T08:08:43;13.00;58.80
44537;DHT22;30245;51.966;6.292;2023-01-13T08:11:08;13.00;58.70
44537;DHT22;30245;51.966;6.292;2023-01-13T08:13:34;13.00;58.50
44537;DHT22;30245;51.966;6.292;2023-01-13T08:18:27;13.00;58.40
44537;DHT22;30245;51.966;6.292;2023-01-13T08:20:52;13.00;58.40
44537;DHT22;30245;51.966;6.292;2023-01-13T08:23:22;13.10;58.30
44537;DHT22;30245;51.966;6.292;2023-01-13T08:25:48;13.10;58.20
44537;DHT22;30245;51.966;6.292;2023-01-13T08:28:15;13.10;58.20
44537;DHT22;30245;51.966;6.292;2023-01-13T08:30:40;13.20;58.20
44537;DHT22;30245;51.966;6.292;2023-01-13T08:33:08;13.20;58.00
44537;DHT22;30245;51.966;6.292;2023-01-13T08:35:38;13.20;57.80
44537;DHT22;30245;51.966;6.292;2023-01-13T08:38:05;13.30;57.90
44537;DHT22;30245;51.966;6.292;2023-01-13T08:40:31;13.40;57.50
44537;DHT22;30245;51.966;6.292;2023-01-13T08:42:57;13.40;57.30
44537;DHT22;30245;51.966;6.292;2023-01-13T08:45:23;13.40;57.20
44537;DHT22;30245;51.966;6.292;2023-01-13T08:47:49;13.50;57.20
44537;DHT22;30245;51.966;6.292;2023-01-13T08:50:15;13.50;57.10
44537;DHT22;30245;51.966;6.292;2023-01-13T08:52:41;13.50;57.10
44537;DHT22;30245;51.966;6.292;2023-01-13T08:55:07;13.40;57.10
44537;DHT22;30245;51.966;6.292;2023-01-13T08:57:33;13.40;57.00
44537;DHT22;30245;51.966;6.292;2023-01-13T08:59:59;13.40;56.90
44537;DHT22;30245;51.966;6.292;2023-01-13T09:02:25;13.40;57.00
44537;DHT22;30245;51.966;6.292;2023-01-13T09:04:51;13.40;57.10
44537;DHT22;30245;51.966;6.292;2023-01-13T09:07:18;13.50;56.90
44537;DHT22;30245;51.966;6.292;2023-01-13T09:09:43;13.40;56.50
44537;DHT22;30245;51.966;6.292;2023-01-13T09:12:10;13.40;56.60
44537;DHT22;30245;51.966;6.292;2023-01-13T09:14:54;13.40;56.70
44537;DHT22;30245;51.966;6.292;2023-01-13T09:17:20;13.50;56.60
44537;DHT22;30245;51.966;6.292;2023-01-13T09:19:47;13.50;56.70
44537;DHT22;30245;51.966;6.292;2023-01-13T09:22:15;13.60;56.50
44537;DHT22;30245;51.966;6.292;2023-01-13T09:24:41;13.60;56.40
44537;DHT22;30245;51.966;6.292;2023-01-13T09:27:11;13.60;56.40
44537;DHT22;30245;51.966;6.292;2023-01-13T09:29:37;13.60;56.50
44537;DHT22;30245;51.966;6.292;2023-01-13T09:32:04;13.60;56.70
44537;DHT22;30245;51.966;6.292;2023-01-13T09:34:30;13.60;56.80
44537;DHT22;30245;51.966;6.292;2023-01-13T09:37:14;13.50;57.00
44537;DHT22;30245;51.966;6.292;2023-01-13T09:39:41;13.50;57.00
44537;DHT22;30245;51.966;6.292;2023-01-13T09:42:28;13.50;57.00
44537;DHT22;30245;51.966;6.292;2023-01-13T09:50:43;13.50;57.00
44537;DHT22;30245;51.966;6.292;2023-01-13T09:53:29;13.60;56.90
44537;DHT22;30245;51.966;6.292;2023-01-13T09:55:57;13.60;57.00
44537;DHT22;30245;51.966;6.292;2023-01-13T09:58:23;13.70;56.90
44537;DHT22;30245;51.966;6.292;2023-01-13T10:01:13;13.60;56.80
44537;DHT22;30245;51.966;6.292;2023-01-13T10:03:40;13.70;56.90
44537;DHT22;30245;51.966;6.292;2023-01-13T10:08:41;13.60;56.90
44537;DHT22;30245;51.966;6.292;2023-01-13T10:11:19;13.60;57.10
44537;DHT22;30245;51.966;6.292;2023-01-13T10:17:28;13.50;57.40
44537;DHT22;30245;51.966;6.292;2023-01-13T10:27:37;13.50;58.40
44537;DHT22;30245;51.966;6.292;2023-01-13T10:30:11;13.40;58.50
44537;DHT22;30245;51.966;6.292;2023-01-13T10:32:38;13.40;58.70
44537;DHT22;30245;51.966;6.292;2023-01-13T10:35:06;13.40;58.90
44537;DHT22;30245;51.966;6.292;2023-01-13T10:37:31;13.40;59.30
44537;DHT22;30245;51.966;6.292;2023-01-13T10:40:00;13.30;59.50
44537;DHT22;30245;51.966;6.292;2023-01-13T10:42:26;13.30;59.70
44537;DHT22;30245;51.966;6.292;2023-01-13T10:44:55;13.30;60.40
44537;DHT22;30245;51.966;6.292;2023-01-13T10:47:35;13.30;60.10
44537;DHT22;30245;51.966;6.292;2023-01-13T10:52:51;13.20;60.70
44537;DHT22;30245;51.966;6.292;2023-01-13T10:55:29;13.20;60.90
44537;DHT22;30245;51.966;6.292;2023-01-13T10:57:55;13.20;60.70
44537;DHT22;30245;51.966;6.292;2023-01-13T11:00:30;13.20;60.80
44537;DHT22;30245;51.966;6.292;2023-01-13T11:03:37;13.20;61.00
44537;DHT22;30245;51.966;6.292;2023-01-13T11:06:06;13.20;61.10
44537;DHT22;30245;51.966;6.292;2023-01-13T11:08:43;13.20;61.20
44537;DHT22;30245;51.966;6.292;2023-01-13T11:11:42;13.20;61.20
44537;DHT22;30245;51.966;6.292;2023-01-13T11:14:15;13.20;61.20
44537;DHT22;30245;51.966;6.292;2023-01-13T11:22:42;13.30;60.90
44537;DHT22;30245;51.966;6.292;2023-01-13T11:25:36;13.30;60.90
44537;DHT22;30245;51.966;6.292;2023-01-13T11:28:23;13.40;60.90
44537;DHT22;30245;51.966;6.292;2023-01-13T11:31:07;13.40;60.60
44537;DHT22;30245;51.966;6.292;2023-01-13T11:33:41;13.40;60.50
44537;DHT22;30245;51.966;6.292;2023-01-13T11:36:22;13.40;60.60
44537;DHT22;30245;51.966;6.292;2023-01-13T11:41:47;13.30;60.80
44537;DHT22;30245;51.966;6.292;2023-01-13T11:44:48;13.30;61.00
44537;DHT22;30245;51.966;6.292;2023-01-13T11:47:20;13.50;61.00
44537;DHT22;30245;51.966;6.292;2023-01-13T11:49:45;13.60;60.70
44537;DHT22;30245;51.966;6.292;2023-01-13T12:04:25;13.70;60.30
44537;DHT22;30245;51.966;6.292;2023-01-13T12:07:26;13.60;60.30
44537;DHT22;30245;51.966;6.292;2023-01-13T12:10:17;13.60;60.00
44537;DHT22;30245;51.966;6.292;2023-01-13T12:13:21;13.70;60.00
44537;DHT22;30245;51.966;6.292;2023-01-13T12:21:22;13.90;59.90
44537;DHT22;30245;51.966;6.292;2023-01-13T12:24:18;13.90;59.90
44537;DHT22;30245;51.966;6.292;2023-01-13T12:29:55;13.90;59.70
44537;DHT22;30245;51.966;6.292;2023-01-13T12:32:34;13.90;60.00
44537;DHT22;30245;51.966;6.292;2023-01-13T12:37:56;13.90;60.30
44537;DHT22;30245;51.966;6.292;2023-01-13T12:40:45;14.00;60.20
44537;DHT22;30245;51.966;6.292;2023-01-13T12:43:18;14.00;60.20
44537;DHT22;30245;51.966;6.292;2023-01-13T12:53:49;14.00;60.30
44537;DHT22;30245;51.966;6.292;2023-01-13T12:56:41;14.00;60.10
44537;DHT22;30245;51.966;6.292;2023-01-13T13:01:45;14.00;60.50
44537;DHT22;30245;51.966;6.292;2023-01-13T13:04:41;14.00;60.50
44537;DHT22;30245;51.966;6.292;2023-01-13T13:07:11;14.00;60.60
44537;DHT22;30245;51.966;6.292;2023-01-13T13:09:43;13.90;60.50
44537;DHT22;30245;51.966;6.292;2023-01-13T13:15:23;13.70;61.00
44537;DHT22;30245;51.966;6.292;2023-01-13T13:20:59;13.60;61.40
44537;DHT22;30245;51.966;6.292;2023-01-13T13:37:31;13.60;61.80
44537;DHT22;30245;51.966;6.292;2023-01-13T13:40:20;13.60;61.80
44537;DHT22;30245;51.966;6.292;2023-01-13T13:43:09;13.70;61.70
44537;DHT22;30245;51.966;6.292;2023-01-13T13:45:54;13.60;61.60
44537;DHT22;30245;51.966;6.292;2023-01-13T13:48:38;13.70;61.60
44537;DHT22;30245;51.966;6.292;2023-01-13T13:51:23;13.60;61.50
44537;DHT22;30245;51.966;6.292;2023-01-13T13:53:50;13.70;61.60
44537;DHT22;30245;51.966;6.292;2023-01-13T13:56:18;13.70;61.40
44537;DHT22;30245;51.966;6.292;2023-01-13T13:58:48;13.80;61.20
44537;DHT22;30245;51.966;6.292;2023-01-13T14:01:36;13.80;61.00
44537;DHT22;30245;51.966;6.292;2023-01-13T14:04:15;13.80;60.90
44537;DHT22;30245;51.966;6.292;2023-01-13T14:06:50;13.80;60.60
44537;DHT22;30245;51.966;6.292;2023-01-13T14:09:17;13.90;60.60
44537;DHT22;30245;51.966;6.292;2023-01-13T14:11:59;13.90;60.50
44537;DHT22;30245;51.966;6.292;2023-01-13T14:14:25;13.90;60.40
44537;DHT22;30245;51.966;6.292;2023-01-13T14:16:51;14.00;60.20
44537;DHT22;30245;51.966;6.292;2023-01-13T14:19:32;14.00;60.10
44537;DHT22;30245;51.966;6.292;2023-01-13T14:22:00;13.90;59.90
44537;DHT22;30245;51.966;6.292;2023-01-13T14:24:26;14.00;60.00
44537;DHT22;30245;51.966;6.292;2023-01-13T14:27:06;14.00;60.00
44537;DHT22;30245;51.966;6.292;2023-01-13T14:29:32;14.00;59.80
44537;DHT22;30245;51.966;6.292;2023-01-13T14:31:58;14.10;59.60
44537;DHT22;30245;51.966;6.292;2023-01-13T14:34:24;14.10;59.40
44537;DHT22;30245;51.966;6.292;2023-01-13T14:36:52;14.00;59.50
44537;DHT22;30245;51.966;6.292;2023-01-13T14:39:21;14.00;59.50
44537;DHT22;30245;51.966;6.292;2023-01-13T14:41:47;14.10;59.40
44537;DHT22;30245;51.966;6.292;2023-01-13T14:44:28;14.00;59.20
44537;DHT22;30245;51.966;6.292;2023-01-13T14:46:56;14.10;59.20
44537;DHT22;30245;51.966;6.292;2023-01-13T14:51:52;14.10;58.80
44537;DHT22;30245;51.966;6.292;2023-01-13T15:08:04;14.00;58.60
44537;DHT22;30245;51.966;6.292;2023-01-13T15:10:33;14.00;58.50
44537;DHT22;30245;51.966;6.292;2023-01-13T15:13:00;14.00;58.50
44537;DHT22;30245;51.966;6.292;2023-01-13T15:15:37;14.00;58.50
44537;DHT22;30245;51.966;6.292;2023-01-13T15:18:12;14.00;58.30
44537;DHT22;30245;51.966;6.292;2023-01-13T15:20:40;14.00;58.40
44537;DHT22;30245;51.966;6.292;2023-01-13T15:23:06;14.10;58.50
44537;DHT22;30245;51.966;6.292;2023-01-13T15:25:34;14.10;58.40
44537;DHT22;30245;51.966;6.292;2023-01-13T15:28:00;14.10;58.20
44537;DHT22;30245;51.966;6.292;2023-01-13T15:30:26;14.10;58.20
44537;DHT22;30245;51.966;6.292;2023-01-13T15:32:56;14.10;58.20
44537;DHT22;30245;51.966;6.292;2023-01-13T15:35:24;14.10;58.20
44537;DHT22;30245;51.966;6.292;2023-01-13T15:37:51;14.10;58.20
44537;DHT22;30245;51.966;6.292;2023-01-13T15:42:45;14.10;57.90
44537;DHT22;30245;51.966;6.292;2023-01-13T15:45:31;14.10;57.80
44537;DHT22;30245;51.966;6.292;2023-01-13T15:48:19;14.00;57.80
44537;DHT22;30245;51.966;6.292;2023-01-13T15:50:45;14.00;57.90
44537;DHT22;30245;51.966;6.292;2023-01-13T15:53:12;14.00;57.90
44537;DHT22;30245;51.966;6.292;2023-01-13T15:55:38;14.00;57.90
44537;DHT22;30245;51.966;6.292;2023-01-13T15:58:05;14.00;57.90
44537;DHT22;30245;51.966;6.292;2023-01-13T16:00:30;14.10;58.00
44537;DHT22;30245;51.966;6.292;2023-01-13T16:02:56;14.10;57.90
44537;DHT22;30245;51.966;6.292;2023-01-13T16:05:22;14.00;57.80
44537;DHT22;30245;51.966;6.292;2023-01-13T16:07:47;14.10;57.80
44537;DHT22;30245;51.966;6.292;2023-01-13T16:10:25;14.10;57.80
44537;DHT22;30245;51.966;6.292;2023-01-13T16:12:52;14.10;57.70
44537;DHT22;30245;51.966;6.292;2023-01-13T16:15:20;14.10;57.70
44537;DHT22;30245;51.966;6.292;2023-01-13T16:17:57;14.00;57.60
44537;DHT22;30245;51.966;6.292;2023-01-13T16:20:24;14.00;57.70
44537;DHT22;30245;51.966;6.292;2023-01-13T16:22:50;14.00;57.60
44537;DHT22;30245;51.966;6.292;2023-01-13T16:25:34;13.90;57.40
44537;DHT22;30245;51.966;6.292;2023-01-13T16:27:59;14.00;58.10
44537;DHT22;30245;51.966;6.292;2023-01-13T16:30:33;14.00;57.40
44537;DHT22;30245;51.966;6.292;2023-01-13T16:32:59;14.00;57.50
44537;DHT22;30245;51.966;6.292;2023-01-13T16:35:25;14.00;57.40
44537;DHT22;30245;51.966;6.292;2023-01-13T16:37:52;14.00;57.50
44537;DHT22;30245;51.966;6.292;2023-01-13T16:40:34;14.00;57.50
44537;DHT22;30245;51.966;6.292;2023-01-13T16:43:01;14.00;57.50
44537;DHT22;30245;51.966;6.292;2023-01-13T16:45:28;14.00;57.40
44537;DHT22;30245;51.966;6.292;2023-01-13T16:47:54;14.00;57.30
44537;DHT22;30245;51.966;6.292;2023-01-13T16:52:59;14.00;57.50
44537;DHT22;30245;51.966;6.292;2023-01-13T16:55:24;14.00;57.40
44537;DHT22;30245;51.966;6.292;2023-01-13T16:57:51;14.00;57.30
44537;DHT22;30245;51.966;6.292;2023-01-13T17:00:17;14.00;57.40
44537;DHT22;30245;51.966;6.292;2023-01-13T17:02:43;14.00;57.30
44537;DHT22;30245;51.966;6.292;2023-01-13T17:05:12;13.90;57.30
44537;DHT22;30245;51.966;6.292;2023-01-13T17:07:41;14.00;57.40
44537;DHT22;30245;51.966;6.292;2023-01-13T17:10:07;14.00;57.30
44537;DHT22;30245;51.966;6.292;2023-01-13T17:12:33;14.00;57.30
44537;DHT22;30245;51.966;6.292;2023-01-13T17:14:58;14.00;57.20
44537;DHT22;30245;51.966;6.292;2023-01-13T17:17:25;13.90;57.30
44537;DHT22;30245;51.966;6.292;2023-01-13T17:19:52;13.90;57.30
44537;DHT22;30245;51.966;6.292;2023-01-13T17:22:19;13.90;57.30
44537;DHT22;30245;51.966;6.292;2023-01-13T17:24:44;14.00;57.40
44537;DHT22;30245;51.966;6.292;2023-01-13T17:27:10;14.00;57.40
44537;DHT22;30245;51.966;6.292;2023-01-13T17:29:36;14.00;57.30
44537;DHT22;30245;51.966;6.292;2023-01-13T17:32:02;14.00;57.40
44537;DHT22;30245;51.966;6.292;2023-01-13T17:34:29;14.00;57.30
44537;DHT22;30245;51.966;6.292;2023-01-13T17:36:54;13.90;57.40
44537;DHT22;30245;51.966;6.292;2023-01-13T17:39:23;14.00;57.40
44537;DHT22;30245;51.966;6.292;2023-01-13T17:41:49;14.00;57.40
44537;DHT22;30245;51.966;6.292;2023-01-13T17:44:19;14.00;57.30
44537;DHT22;30245;51.966;6.292;2023-01-13T17:46:45;14.00;57.30
44537;DHT22;30245;51.966;6.292;2023-01-13T17:49:13;14.00;57.30
44537;DHT22;30245;51.966;6.292;2023-01-13T17:51:39;14.00;57.30
44537;DHT22;30245;51.966;6.292;2023-01-13T17:54:05;14.10;57.30
44537;DHT22;30245;51.966;6.292;2023-01-13T17:56:30;14.10;57.30
44537;DHT22;30245;51.966;6.292;2023-01-13T17:58:56;14.00;57.40
44537;DHT22;30245;51.966;6.292;2023-01-13T18:01:22;14.00;57.60
44537;DHT22;30245;51.966;6.292;2023-01-13T18:03:48;13.90;57.80
44537;DHT22;30245;51.966;6.292;2023-01-13T18:06:16;13.90;58.10
44537;DHT22;30245;51.966;6.292;2023-01-13T18:08:42;13.90;58.30
44537;DHT22;30245;51.966;6.292;2023-01-13T18:11:08;13.90;58.40
44537;DHT22;30245;51.966;6.292;2023-01-13T18:13:34;13.90;58.30